createdAt,value
2023-05-10T00:01:35.571Z,13.81
2023-05-10T00:04:02.951Z,14.33
2023-05-10T00:06:30.006Z,14.23
2023-05-10T00:08:57.018Z,14.14
2023-05-10T00:11:24.054Z,14.21
2023-05-10T00:13:51.040Z,14.02
2023-05-10T00:16:18.079Z,13.90
2023-05-10T00:18:45.107Z,14.25
2023-05-10T00:21:12.106Z,14.27
2023-05-10T00:23:39.234Z,14.25
2023-05-10T00:26:06.855Z,13.79
2023-05-10T00:28:34.138Z,14.06
2023-05-10T00:31:01.155Z,14.12
2023-05-10T00:33:28.211Z,14.15
2023-05-10T00:35:55.239Z,14.26
2023-05-10T00:38:22.309Z,14.31
2023-05-10T00:40:49.361Z,13.66
2023-05-10T00:43:16.364Z,13.95
2023-05-10T00:45:43.411Z,14.15
2023-05-10T00:48:10.488Z,14.09
2023-05-10T00:50:37.540Z,13.85
2023-05-10T00:53:04.627Z,14.33
2023-05-10T00:55:31.716Z,14.31
2023-05-10T00:57:58.843Z,14.16
2023-05-10T01:00:26.914Z,13.70
2023-05-10T01:02:55.000Z,14.07
2023-05-10T01:05:22.221Z,14.18
2023-05-10T01:07:49.442Z,13.98
2023-05-10T01:10:16.814Z,13.84
2023-05-10T01:12:44.944Z,13.87
2023-05-10T01:15:12.152Z,14.00
2023-05-10T01:17:39.812Z,14.13
2023-05-10T01:20:09.304Z,13.86
2023-05-10T01:23:16.763Z,13.89
2023-05-10T01:26:07.635Z,14.15
2023-05-10T01:29:15.824Z,14.13
2023-05-10T01:32:22.032Z,14.10
2023-05-10T01:34:55.885Z,13.98
2023-05-10T01:37:39.558Z,14.10
2023-05-10T01:40:15.064Z,14.07
2023-05-10T01:42:53.626Z,13.83
2023-05-10T01:45:30.668Z,13.72
2023-05-10T01:48:04.899Z,13.72
2023-05-10T01:50:32.041Z,13.67
2023-05-10T01:52:59.997Z,13.70
2023-05-10T01:55:29.957Z,14.04
2023-05-10T01:58:09.145Z,13.78
2023-05-10T02:00:36.747Z,14.04
2023-05-10T02:03:07.662Z,13.88
2023-05-10T02:05:34.866Z,13.94
2023-05-10T02:08:02.677Z,13.89
2023-05-10T02:10:30.254Z,13.90
2023-05-10T02:12:57.518Z,13.87
2023-05-10T02:15:24.959Z,13.93
2023-05-10T02:17:52.056Z,13.71
2023-05-10T02:20:19.568Z,13.81
2023-05-10T02:22:46.660Z,13.62
2023-05-10T02:25:13.648Z,13.87
2023-05-10T02:27:40.711Z,14.05
2023-05-10T02:30:08.614Z,13.54
2023-05-10T02:32:35.743Z,13.95
2023-05-10T02:35:04.107Z,13.83
2023-05-10T02:37:31.077Z,14.01
2023-05-10T02:39:58.305Z,13.62
2023-05-10T02:42:28.954Z,14.04
2023-05-10T02:45:00.748Z,13.73
2023-05-10T02:47:28.531Z,13.98
2023-05-10T02:49:55.810Z,13.91
2023-05-10T02:52:27.552Z,13.74
2023-05-10T02:54:56.638Z,14.04
2023-05-10T02:57:26.495Z,13.62
2023-05-10T02:59:53.492Z,14.05
2023-05-10T03:02:21.500Z,14.03
2023-05-10T03:04:48.584Z,13.89
2023-05-10T03:07:15.654Z,13.81
2023-05-10T03:09:42.671Z,13.65
2023-05-10T03:12:15.709Z,14.06
2023-05-10T03:15:14.836Z,14.05
2023-05-10T03:17:53.914Z,14.05
2023-05-10T03:20:52.626Z,13.88
2023-05-10T03:23:19.529Z,14.00
2023-05-10T03:25:48.079Z,13.99
2023-05-10T03:28:15.528Z,13.65
2023-05-10T03:30:43.053Z,14.02
2023-05-10T03:33:10.126Z,13.85
2023-05-10T03:35:37.204Z,13.85
2023-05-10T03:38:04.244Z,14.02
2023-05-10T03:40:33.022Z,13.94
2023-05-10T03:43:00.410Z,13.99
2023-05-10T05:04:16.276Z,13.40
2023-05-10T05:06:43.281Z,13.13
2023-05-10T05:09:11.489Z,13.13
2023-05-10T05:11:38.821Z,13.14
2023-05-10T05:14:05.824Z,13.37
2023-05-10T05:16:33.783Z,13.17
2023-05-10T05:19:01.823Z,13.44
2023-05-10T05:21:29.466Z,13.60
2023-05-10T05:23:56.582Z,13.44
2023-05-10T05:26:23.590Z,13.54
2023-05-10T05:28:53.740Z,13.54
2023-05-10T05:31:20.897Z,13.52
2023-05-10T05:33:48.084Z,13.14
2023-05-10T05:36:15.093Z,13.69
2023-05-10T05:38:42.124Z,13.52
2023-05-10T05:41:09.116Z,13.56
2023-05-10T05:43:38.222Z,13.55
2023-05-10T05:46:05.723Z,13.71
2023-05-10T05:48:32.859Z,13.70
2023-05-10T05:51:00.108Z,13.55
2023-05-10T05:53:27.304Z,13.54
2023-05-10T05:55:59.748Z,13.58
2023-05-10T05:58:27.162Z,13.56
2023-05-10T06:00:54.270Z,13.74
2023-05-10T06:03:21.902Z,13.72
2023-05-10T06:05:49.066Z,13.57
2023-05-10T06:08:16.313Z,13.78
2023-05-10T06:10:43.534Z,13.70
2023-05-10T06:13:11.069Z,13.65
2023-05-10T06:15:38.177Z,13.64
2023-05-10T06:18:05.578Z,13.88
2023-05-10T06:20:32.756Z,13.73
2023-05-10T06:22:59.904Z,14.00
2023-05-10T06:25:26.952Z,13.67
2023-05-10T06:27:58.454Z,13.84
2023-05-10T06:30:29.659Z,13.76
2023-05-10T06:32:57.453Z,13.98
2023-05-10T06:35:24.649Z,14.09
2023-05-10T06:37:52.152Z,14.07
2023-05-10T06:40:19.467Z,13.84
2023-05-10T06:42:47.074Z,13.96
2023-05-10T06:45:15.879Z,13.86
2023-05-10T06:47:43.339Z,14.05
2023-05-10T06:50:11.056Z,13.80
2023-05-10T06:52:38.277Z,13.81
2023-05-10T06:55:06.243Z,13.94
2023-05-10T06:57:33.732Z,14.04
2023-05-10T07:00:00.943Z,14.13
2023-05-10T07:02:28.148Z,14.05
2023-05-10T07:04:55.353Z,13.95
2023-05-10T07:07:22.517Z,13.85
2023-05-10T07:09:50.998Z,14.25
2023-05-10T07:12:18.238Z,14.12
2023-05-10T07:14:45.355Z,14.26
2023-05-10T07:17:12.512Z,14.11
2023-05-10T07:19:39.565Z,14.05
2023-05-10T07:22:06.738Z,13.93
2023-05-10T07:24:34.294Z,13.64
2023-05-10T07:27:01.375Z,13.83
2023-05-10T07:29:28.365Z,14.00
2023-05-10T07:31:57.862Z,14.00
2023-05-10T07:34:26.238Z,13.94
2023-05-10T07:36:53.763Z,14.06
2023-05-10T07:39:27.814Z,14.35
2023-05-10T07:41:55.949Z,14.37
2023-05-10T07:44:23.256Z,14.38
2023-05-10T07:46:50.336Z,14.09
2023-05-10T07:49:17.721Z,14.21
2023-05-10T07:51:44.828Z,13.86
2023-05-10T07:54:11.939Z,14.15
2023-05-10T07:56:39.130Z,14.22
2023-05-10T07:59:09.250Z,14.40
2023-05-10T08:01:37.793Z,14.45
2023-05-10T08:04:05.560Z,14.54
2023-05-10T08:06:32.704Z,14.47
2023-05-10T08:08:59.739Z,13.69
2023-05-10T08:11:28.759Z,14.67
2023-05-10T08:13:55.963Z,14.42
2023-05-10T08:16:23.282Z,14.54
2023-05-10T08:18:51.962Z,14.48
2023-05-10T08:21:19.139Z,14.64
2023-05-10T08:23:46.216Z,14.56
2023-05-10T08:26:13.294Z,14.68
2023-05-10T08:28:40.320Z,14.62
2023-05-10T08:31:07.441Z,14.73
2023-05-10T08:33:35.170Z,14.71
2023-05-10T08:36:02.186Z,14.47
2023-05-10T08:38:29.201Z,14.40
2023-05-10T08:41:00.120Z,14.63
2023-05-10T08:43:29.248Z,14.60
2023-05-10T08:45:57.618Z,14.60
2023-05-10T08:48:25.791Z,14.50
2023-05-10T08:50:55.639Z,14.33
2023-05-10T08:53:22.700Z,14.28
2023-05-10T08:55:49.796Z,14.35
2023-05-10T08:58:16.930Z,14.37
2023-05-10T09:00:44.217Z,14.53
2023-05-10T09:03:11.451Z,14.27
2023-05-10T09:05:38.499Z,14.40
2023-05-10T09:08:06.523Z,14.51
2023-05-10T09:10:34.023Z,14.40
2023-05-10T09:13:01.047Z,14.53
2023-05-10T09:15:28.218Z,14.56
2023-05-10T09:17:58.231Z,14.90
2023-05-10T09:20:25.817Z,15.00
2023-05-10T09:22:53.160Z,15.05
2023-05-10T09:25:20.650Z,15.18
2023-05-10T09:27:48.427Z,14.99
2023-05-10T09:30:19.227Z,15.25
2023-05-10T09:32:48.327Z,15.04
2023-05-10T09:35:17.653Z,15.24
2023-05-10T09:37:48.971Z,15.40
2023-05-10T09:40:20.289Z,15.39
2023-05-10T09:42:57.462Z,15.02
2023-05-10T09:45:25.616Z,15.16
2023-05-10T09:47:52.935Z,15.17
2023-05-10T09:50:21.563Z,15.37
2023-05-10T09:53:01.533Z,15.36
2023-05-10T09:55:41.580Z,15.48
2023-05-10T09:58:11.822Z,15.05
2023-05-10T10:00:43.112Z,15.28
2023-05-10T10:03:18.011Z,15.50
2023-05-10T10:05:45.778Z,15.39
2023-05-10T10:08:13.588Z,15.08
2023-05-10T10:10:47.220Z,14.64
2023-05-10T10:13:14.714Z,15.15
2023-05-10T10:15:41.770Z,15.13
2023-05-10T10:18:09.077Z,15.23
2023-05-10T10:20:36.924Z,15.10
2023-05-10T10:23:04.012Z,14.94
2023-05-10T10:25:31.036Z,15.09
2023-05-10T10:28:05.646Z,14.97
2023-05-10T10:30:45.297Z,15.37
2023-05-10T10:33:31.046Z,15.01
2023-05-10T10:36:00.249Z,15.20
2023-05-10T10:39:00.428Z,15.28
2023-05-10T10:41:34.669Z,15.45
2023-05-10T10:44:37.737Z,15.46
2023-05-10T10:47:24.472Z,15.48
2023-05-10T10:50:05.227Z,15.47
2023-05-10T10:52:36.617Z,15.29
2023-05-10T10:55:13.742Z,15.52
2023-05-10T10:58:02.139Z,15.51
2023-05-10T11:00:29.982Z,15.55
2023-05-10T11:03:08.310Z,15.60
2023-05-10T11:05:38.417Z,15.69
2023-05-10T11:08:13.648Z,15.52
2023-05-10T11:10:41.660Z,15.76
2023-05-10T11:13:11.838Z,15.71
2023-05-10T11:15:42.311Z,15.62
2023-05-10T11:18:25.537Z,15.82
2023-05-10T11:21:10.458Z,15.90
2023-05-10T11:23:53.004Z,15.78
2023-05-10T11:26:20.393Z,15.87
2023-05-10T11:28:49.719Z,16.05
2023-05-10T11:31:18.617Z,15.97
2023-05-10T11:33:49.634Z,16.23
2023-05-10T11:36:29.896Z,16.29
2023-05-10T11:38:57.854Z,16.05
2023-05-10T11:41:26.045Z,16.21
2023-05-10T11:43:54.825Z,16.11
2023-05-10T11:46:25.815Z,16.16
2023-05-10T11:48:59.518Z,16.13
2023-05-10T11:51:26.991Z,16.08
2023-05-10T11:53:56.150Z,16.11
2023-05-10T11:56:24.685Z,16.31
2023-05-10T11:58:57.839Z,16.12
2023-05-10T12:01:27.327Z,16.21
2023-05-10T12:03:59.842Z,16.26
2023-05-10T12:06:33.697Z,16.27
2023-05-10T12:09:04.948Z,16.58
2023-05-10T12:11:32.060Z,16.20
2023-05-10T12:13:59.408Z,16.62
2023-05-10T12:16:33.193Z,16.48
2023-05-10T12:19:01.811Z,16.45
2023-05-10T12:21:32.468Z,16.53
2023-05-10T12:24:06.230Z,16.53
2023-05-10T12:26:33.986Z,16.67
2023-05-10T12:29:19.173Z,16.47
2023-05-10T12:31:56.277Z,16.79
2023-05-10T12:34:36.202Z,16.80
2023-05-10T12:37:06.444Z,16.47
2023-05-10T12:39:45.321Z,16.59
2023-05-10T12:42:12.776Z,16.61
2023-05-10T12:44:40.990Z,16.61
2023-05-10T12:47:08.258Z,16.56
2023-05-10T12:49:35.579Z,16.82
2023-05-10T12:52:02.827Z,16.58
2023-05-10T12:54:29.925Z,15.82
2023-05-10T12:56:57.060Z,16.69
2023-05-10T12:59:24.209Z,16.82
2023-05-10T13:01:51.304Z,16.43
2023-05-10T13:04:18.502Z,16.79
2023-05-10T13:06:45.672Z,16.63
2023-05-10T13:09:12.797Z,16.62
2023-05-10T13:11:39.917Z,16.57
2023-05-10T13:14:07.018Z,16.90
2023-05-10T13:16:34.581Z,16.93
2023-05-10T13:19:01.842Z,16.77
2023-05-10T13:21:29.160Z,16.81
2023-05-10T13:23:56.719Z,17.04
2023-05-10T13:26:23.831Z,16.56
2023-05-10T13:28:52.882Z,16.98
2023-05-10T13:31:20.129Z,16.98
2023-05-10T13:33:47.288Z,16.92
2023-05-10T13:36:14.380Z,17.17
2023-05-10T13:38:41.737Z,17.03
2023-05-10T13:41:08.966Z,16.95
2023-05-10T13:43:37.188Z,16.71
2023-05-10T13:46:04.518Z,17.14
2023-05-10T13:48:31.624Z,16.92
2023-05-10T13:50:58.710Z,16.98
2023-05-10T13:53:25.777Z,17.05
2023-05-10T13:55:52.920Z,17.04
2023-05-10T13:58:20.404Z,17.23
2023-05-10T14:00:47.578Z,17.11
2023-05-10T14:03:14.725Z,17.17
2023-05-10T14:05:42.101Z,17.15
2023-05-10T14:08:10.562Z,17.25
2023-05-10T14:10:38.094Z,17.48
2023-05-10T14:13:05.517Z,17.52
2023-05-10T14:15:32.697Z,17.23
2023-05-10T14:17:59.814Z,17.47
2023-05-10T14:20:27.510Z,17.34
2023-05-10T14:22:54.671Z,17.51
2023-05-10T14:25:21.952Z,17.54
2023-05-10T14:27:49.124Z,17.64
2023-05-10T14:30:16.650Z,17.75
2023-05-10T14:32:44.021Z,17.66
2023-05-10T14:35:12.939Z,17.76
2023-05-10T14:37:40.809Z,17.84
2023-05-10T14:40:08.858Z,17.81
2023-05-10T14:42:36.154Z,17.59
2023-05-10T14:45:03.838Z,17.70
2023-05-10T14:47:31.417Z,17.77
2023-05-10T14:49:59.378Z,17.49
2023-05-10T14:52:26.984Z,17.44
2023-05-10T14:54:54.617Z,17.42
2023-05-10T14:57:21.706Z,17.49
2023-05-10T14:59:49.232Z,17.47
2023-05-10T15:02:17.419Z,17.63
2023-05-10T15:04:44.927Z,17.54
2023-05-10T15:07:15.485Z,17.42
2023-05-10T15:09:42.683Z,17.37
2023-05-10T15:12:09.797Z,17.35
2023-05-10T15:14:37.557Z,17.65
2023-05-10T15:17:07.556Z,17.51
2023-05-10T15:19:35.244Z,17.50
2023-05-10T15:22:02.362Z,17.63
2023-05-10T15:24:29.999Z,17.80
2023-05-10T15:26:57.096Z,17.61
2023-05-10T15:29:24.278Z,17.42
2023-05-10T15:31:52.698Z,17.64
2023-05-10T15:34:20.164Z,17.74
2023-05-10T15:36:47.334Z,17.32
2023-05-10T15:39:14.473Z,17.52
2023-05-10T15:41:41.651Z,17.43
2023-05-10T15:44:08.721Z,17.61
2023-05-10T15:46:36.153Z,17.35
2023-05-10T15:49:03.972Z,17.61
2023-05-10T15:51:31.084Z,17.59
2023-05-10T15:54:07.202Z,17.59
2023-05-10T15:56:35.408Z,17.66
2023-05-10T15:59:02.616Z,17.60
2023-05-10T16:01:31.156Z,17.60
2023-05-10T16:03:58.352Z,17.45
2023-05-10T16:06:25.435Z,17.16
2023-05-10T16:08:54.141Z,17.47
2023-05-10T16:11:22.126Z,17.22
2023-05-10T16:13:49.221Z,17.21
2023-05-10T16:16:16.531Z,17.12
2023-05-10T16:18:43.843Z,17.16
2023-05-10T16:21:11.106Z,17.05
2023-05-10T16:23:38.304Z,16.82
2023-05-10T16:26:05.668Z,16.78
2023-05-10T16:28:32.827Z,16.77
2023-05-10T16:31:00.090Z,16.83
2023-05-10T16:33:27.438Z,17.03
2023-05-10T16:35:54.525Z,16.92
2023-05-10T16:38:22.043Z,16.83
2023-05-10T16:40:49.132Z,16.87
2023-05-10T16:43:16.235Z,16.33
2023-05-10T16:45:43.380Z,16.92
2023-05-10T16:48:10.491Z,16.70
2023-05-10T16:50:37.607Z,16.81
2023-05-10T16:53:05.094Z,16.86
2023-05-10T16:55:32.399Z,16.53
2023-05-10T16:58:01.030Z,16.82
2023-05-10T17:00:28.136Z,16.47
2023-05-10T17:02:55.471Z,16.54
2023-05-10T17:05:23.205Z,16.56
2023-05-10T17:07:50.710Z,16.30
2023-05-10T17:10:17.972Z,16.57
2023-05-10T17:12:45.822Z,16.67
2023-05-10T17:15:13.308Z,16.51
2023-05-10T17:17:40.548Z,16.29
2023-05-10T17:20:08.758Z,16.48
2023-05-10T17:22:36.081Z,16.53
2023-05-10T17:25:03.625Z,16.54
2023-05-10T17:27:30.776Z,16.51
2023-05-10T17:29:58.178Z,16.54
2023-05-10T17:32:26.220Z,16.30
2023-05-10T17:34:53.439Z,16.56
2023-05-10T17:37:20.659Z,16.49
2023-05-10T17:39:47.768Z,16.54
2023-05-10T17:42:17.648Z,16.24
2023-05-10T17:44:44.792Z,16.26
2023-05-10T17:47:11.875Z,16.58
2023-05-10T17:49:40.031Z,16.34
2023-05-10T17:52:07.614Z,16.41
2023-05-10T17:54:35.342Z,16.55
2023-05-10T17:57:04.036Z,16.53
2023-05-10T17:59:31.169Z,16.53
2023-05-10T18:01:58.246Z,16.60
2023-05-10T18:04:26.175Z,16.53
2023-05-10T18:07:01.234Z,16.19
2023-05-10T18:09:28.967Z,16.55
2023-05-10T18:11:56.138Z,16.44
2023-05-10T18:14:39.175Z,16.59
2023-05-10T18:17:08.329Z,16.50
2023-05-10T18:19:35.681Z,16.56
2023-05-10T18:22:02.839Z,16.46
2023-05-10T18:24:39.018Z,16.39
2023-05-10T18:27:08.907Z,16.47
2023-05-10T18:29:36.825Z,16.20
2023-05-10T18:32:04.084Z,16.33
2023-05-10T18:34:31.174Z,16.24
2023-05-10T18:36:58.306Z,16.26
2023-05-10T18:39:25.445Z,16.31
2023-05-10T18:41:52.626Z,15.99
2023-05-10T18:44:19.730Z,16.21
2023-05-10T18:46:47.536Z,16.35
2023-05-10T18:49:15.880Z,16.33
2023-05-10T18:51:43.031Z,16.06
2023-05-10T18:54:10.103Z,15.90
2023-05-10T18:56:37.365Z,16.13
2023-05-10T18:59:07.505Z,16.15
2023-05-10T19:01:35.372Z,16.14
2023-05-10T19:04:02.668Z,16.06
2023-05-10T19:06:29.828Z,16.17
2023-05-10T19:08:56.884Z,15.91
2023-05-10T19:11:24.022Z,16.09
2023-05-10T19:13:51.521Z,16.09
2023-05-10T19:16:18.774Z,15.72
2023-05-10T19:18:46.961Z,15.60
2023-05-10T19:21:21.372Z,15.47
2023-05-10T19:23:49.385Z,15.66
2023-05-10T19:26:16.601Z,15.77
2023-05-10T19:28:44.131Z,15.91
2023-05-10T19:31:11.452Z,15.71
2023-05-10T19:33:38.583Z,15.55
2023-05-10T19:36:05.947Z,15.54
2023-05-10T19:38:33.965Z,15.43
2023-05-10T19:41:01.316Z,15.65
2023-05-10T19:43:33.345Z,15.72
2023-05-10T19:46:01.909Z,15.32
2023-05-10T19:48:29.002Z,15.29
2023-05-10T19:51:01.146Z,15.35
2023-05-10T19:53:28.306Z,15.33
2023-05-10T19:55:56.386Z,15.29
2023-05-10T19:58:23.912Z,15.42
2023-05-10T20:00:50.988Z,15.43
2023-05-10T20:03:17.996Z,15.39
2023-05-10T20:05:45.055Z,15.20
2023-05-10T20:08:12.065Z,15.02
2023-05-10T20:10:39.116Z,15.29
2023-05-10T20:13:06.232Z,15.23
2023-05-10T20:15:34.067Z,15.43
2023-05-10T20:18:01.370Z,15.40
2023-05-10T20:20:28.460Z,15.35
2023-05-10T20:22:55.618Z,15.15
2023-05-10T20:25:22.658Z,15.37
2023-05-10T20:27:51.083Z,14.90
2023-05-10T20:30:18.416Z,15.21
2023-05-10T20:32:45.636Z,15.33
2023-05-10T20:35:12.757Z,15.16
2023-05-10T20:37:39.819Z,15.44
2023-05-10T20:40:07.248Z,15.44
2023-05-10T20:42:34.356Z,15.39
2023-05-10T20:45:01.384Z,15.00
2023-05-10T20:47:28.476Z,15.32
2023-05-10T20:49:55.570Z,15.43
2023-05-10T20:52:25.147Z,15.13
2023-05-10T20:54:52.343Z,15.26
2023-05-10T20:57:20.187Z,14.85
2023-05-10T20:59:47.244Z,15.36
2023-05-10T21:02:14.288Z,15.24
2023-05-10T21:04:41.340Z,15.08
2023-05-10T21:07:08.420Z,15.15
2023-05-10T21:09:36.021Z,15.14
2023-05-10T21:12:04.263Z,15.11
2023-05-10T21:14:31.405Z,15.27
2023-05-10T21:16:58.419Z,15.10
2023-05-10T21:19:25.456Z,15.24
2023-05-10T21:21:52.590Z,15.04
2023-05-10T21:24:19.792Z,15.20
2023-05-10T21:26:47.332Z,15.32
2023-05-10T21:29:14.361Z,15.09
2023-05-10T21:31:41.445Z,15.18
2023-05-10T21:34:08.449Z,15.03
2023-05-10T21:36:35.572Z,15.25
2023-05-10T21:39:03.716Z,15.08
2023-05-10T21:41:30.833Z,15.02
2023-05-10T21:43:57.872Z,15.05
2023-05-10T21:46:25.075Z,14.87
2023-05-10T21:48:52.161Z,15.11
2023-05-10T21:51:19.243Z,14.99
2023-05-10T21:53:46.310Z,15.00
2023-05-10T21:56:13.321Z,14.72
2023-05-10T21:58:40.308Z,15.04
2023-05-10T22:01:07.474Z,14.86
2023-05-10T22:03:37.287Z,14.83
2023-05-10T22:06:08.576Z,14.79
2023-05-10T22:08:38.109Z,14.91
2023-05-10T22:11:05.738Z,14.92
2023-05-10T22:13:32.788Z,14.80
2023-05-10T22:15:59.796Z,14.78
2023-05-10T22:18:26.808Z,14.80
2023-05-10T22:20:53.844Z,14.66
2023-05-10T22:23:20.894Z,14.34
2023-05-10T22:25:47.913Z,14.38
2023-05-10T22:28:14.940Z,14.56
2023-05-10T22:30:43.105Z,14.76
2023-05-10T22:33:10.075Z,14.70
2023-05-10T22:35:37.100Z,14.55
2023-05-10T22:38:04.234Z,14.59
2023-05-10T22:40:31.361Z,14.45
2023-05-10T22:42:58.346Z,14.63
2023-05-10T22:45:25.886Z,14.48
2023-05-10T22:47:53.007Z,14.04
2023-05-10T22:50:20.666Z,14.47
2023-05-10T22:52:47.777Z,14.37
2023-05-10T22:55:14.831Z,14.46
2023-05-10T22:57:41.859Z,14.35
2023-05-10T23:00:09.413Z,14.22
2023-05-10T23:02:36.463Z,14.27
2023-05-10T23:05:04.148Z,14.31
2023-05-10T23:07:31.208Z,14.15
2023-05-10T23:09:58.203Z,14.11
2023-05-10T23:12:25.385Z,14.19
2023-05-10T23:14:52.473Z,14.22
2023-05-10T23:17:19.478Z,14.29
2023-05-10T23:19:46.757Z,13.97
2023-05-10T23:22:13.983Z,14.29
2023-05-10T23:24:41.015Z,14.24
2023-05-10T23:27:08.023Z,14.06
2023-05-10T23:29:38.125Z,13.82
2023-05-10T23:32:05.751Z,14.14
2023-05-10T23:34:32.810Z,13.86
2023-05-10T23:36:59.814Z,14.13
2023-05-10T23:39:26.849Z,14.06
2023-05-10T23:41:53.931Z,14.04
2023-05-10T23:44:20.949Z,14.14
2023-05-10T23:46:47.945Z,14.00
2023-05-10T23:49:14.995Z,13.81
2023-05-10T23:51:42.041Z,14.15
2023-05-10T23:54:09.110Z,13.95
2023-05-10T23:56:36.215Z,13.95
2023-05-10T23:59:05.769Z,13.92
